Time;durP1;ratioP1;P1;durP2;ratioP2;P2;SDS_P1;SDS_P2;PMS_P1;PMS_P2;Temp;Humidity;BMP_temperature;BMP_pressure;BME280_temperature;BME280_humidity;BME280_pressure;Samples;Min_cycle;Max_cycle;Signal;HPM_P1;HPM_P2
2023/05/22 00:01:00;;;;;;;12.30;9.97;;;;;;;;;;749051;185;901996;-60
2023/05/22 00:03:23;;;;;;;12.90;9.50;;;;;;;;;;753662;186;816025;-61
2023/05/22 00:05:49;;;;;;;13.67;9.50;;;;;;;;;;744118;185;938652;-60
2023/05/22 00:08:14;;;;;;;16.25;10.18;;;;;;;;;;751356;183;917859;-60
2023/05/22 00:10:40;;;;;;;14.00;10.00;;;;;;;;;;751034;185;920000;-60
2023/05/22 00:13:06;;;;;;;16.23;10.90;;;;;;;;;;748919;185;935628;-60
2023/05/22 00:15:32;;;;;;;15.40;11.00;;;;;;;;;;751055;185;923837;-60
2023/05/22 00:17:58;;;;;;;18.40;11.57;;;;;;;;;;753168;185;917181;-60
2023/05/22 00:20:25;;;;;;;18.63;10.13;;;;;;;;;;748323;185;919369;-60
2023/05/22 00:22:49;;;;;;;10.23;8.60;;;;;;;;;;746491;185;919332;-59
2023/05/22 00:25:15;;;;;;;22.80;9.50;;;;;;;;;;749936;185;860397;-61
2023/05/22 00:27:41;;;;;;;13.70;9.60;;;;;;;;;;754185;185;918281;-61
2023/05/22 00:30:07;;;;;;;13.62;9.57;;;;;;;;;;749146;184;920154;-61
2023/05/22 00:32:33;;;;;;;15.97;11.23;;;;;;;;;;751362;184;919434;-60
2023/05/22 00:34:59;;;;;;;18.90;11.77;;;;;;;;;;749093;185;919532;-60
2023/05/22 00:37:25;;;;;;;15.60;11.07;;;;;;;;;;746922;185;918555;-60
2023/05/22 00:39:51;;;;;;;14.80;9.75;;;;;;;;;;749348;185;919091;-60
2023/05/22 00:42:17;;;;;;;18.00;11.17;;;;;;;;;;752364;185;917503;-59
2023/05/22 00:44:42;;;;;;;13.20;10.30;;;;;;;;;;744017;184;925606;-60
2023/05/22 00:47:09;;;;;;;10.83;9.50;;;;;;;;;;746486;186;817475;-60
2023/05/22 00:49:35;;;;;;;11.93;9.60;;;;;;;;;;746336;186;916970;-60
2023/05/22 00:52:00;;;;;;;15.70;9.65;;;;;;;;;;754203;186;915143;-60
2023/05/22 00:54:26;;;;;;;11.50;9.20;;;;;;;;;;744555;186;944120;-61
2023/05/22 00:56:52;;;;;;;15.20;10.73;;;;;;;;;;744287;185;917515;-60
2023/05/22 00:59:18;;;;;;;15.23;11.13;;;;;;;;;;754401;185;816877;-60
2023/05/22 01:01:44;;;;;;;18.67;11.80;;;;;;;;;;743301;185;918654;-61
2023/05/22 01:04:10;;;;;;;13.23;9.60;;;;;;;;;;748488;186;919435;-61
2023/05/22 01:06:35;;;;;;;13.13;10.07;;;;;;;;;;753406;186;917511;-61
2023/05/22 01:09:02;;;;;;;11.03;8.33;;;;;;;;;;745117;185;918527;-61
2023/05/22 01:11:28;;;;;;;12.83;10.10;;;;;;;;;;744827;185;1026131;-60
2023/05/22 01:14:00;;;;;;;11.63;9.43;;;;;;;;;;747878;186;915413;-60
2023/05/22 01:16:28;;;;;;;10.60;9.03;;;;;;;;;;750589;185;916880;-61
2023/05/22 01:18:53;;;;;;;11.27;8.40;;;;;;;;;;749042;185;913380;-62
2023/05/22 01:21:20;;;;;;;16.43;10.80;;;;;;;;;;751701;184;929855;-61
2023/05/22 01:23:52;;;;;;;13.13;10.07;;;;;;;;;;754489;185;917968;-60
2023/05/22 01:26:17;;;;;;;12.63;10.03;;;;;;;;;;751732;185;813710;-60
2023/05/22 01:28:49;;;;;;;14.40;10.80;;;;;;;;;;748052;185;840612;-59
2023/05/22 01:31:15;;;;;;;13.70;9.90;;;;;;;;;;747726;185;866837;-61
2023/05/22 01:33:41;;;;;;;13.63;10.70;;;;;;;;;;755311;185;916564;-62
2023/05/22 01:36:07;;;;;;;13.50;11.50;;;;;;;;;;753022;185;918320;-61
2023/05/22 01:38:33;;;;;;;15.67;10.33;;;;;;;;;;747327;185;921458;-61
2023/05/22 01:40:58;;;;;;;12.10;9.97;;;;;;;;;;745182;185;919211;-62
2023/05/22 01:43:24;;;;;;;15.90;12.40;;;;;;;;;;748206;185;917315;-62
2023/05/22 01:45:50;;;;;;;15.55;10.32;;;;;;;;;;750064;185;915701;-61
2023/05/22 01:48:16;;;;;;;11.67;8.43;;;;;;;;;;747394;185;920750;-63
2023/05/22 01:50:42;;;;;;;18.00;9.63;;;;;;;;;;751081;185;920581;-61
2023/05/22 01:53:11;;;;;;;17.10;10.50;;;;;;;;;;751974;184;817627;-63
2023/05/22 01:55:39;;;;;;;12.18;9.60;;;;;;;;;;749505;184;912018;-62
2023/05/22 01:58:02;;;;;;;13.60;10.80;;;;;;;;;;748950;186;918853;-63
2023/05/22 02:00:28;;;;;;;15.10;10.70;;;;;;;;;;746891;184;921135;-61
2023/05/22 02:02:57;;;;;;;13.30;9.53;;;;;;;;;;747275;186;919377;-62
2023/05/22 02:05:23;;;;;;;12.57;9.07;;;;;;;;;;747285;186;920648;-60
2023/05/22 02:07:49;;;;;;;13.47;9.33;;;;;;;;;;753082;186;916479;-62
2023/05/22 02:10:14;;;;;;;13.00;8.97;;;;;;;;;;749694;185;924547;-62
2023/05/22 02:12:40;;;;;;;13.43;10.10;;;;;;;;;;743830;186;919654;-62
2023/05/22 02:15:07;;;;;;;11.70;8.43;;;;;;;;;;750638;186;778217;-60
2023/05/22 02:17:35;;;;;;;17.40;9.37;;;;;;;;;;746930;186;819306;-60
2023/05/22 02:20:01;;;;;;;18.03;10.70;;;;;;;;;;745054;184;920022;-61
2023/05/22 02:22:27;;;;;;;12.77;9.40;;;;;;;;;;743910;184;919609;-61
2023/05/22 02:24:53;;;;;;;15.57;9.33;;;;;;;;;;756216;181;816465;-61
2023/05/22 02:27:19;;;;;;;14.70;9.00;;;;;;;;;;745248;185;935671;-61
2023/05/22 02:29:45;;;;;;;11.73;9.73;;;;;;;;;;745391;185;918837;-61
2023/05/22 02:32:10;;;;;;;13.00;10.00;;;;;;;;;;755290;184;921323;-61
2023/05/22 02:34:36;;;;;;;13.00;10.20;;;;;;;;;;747619;185;920692;-60
2023/05/22 02:37:02;;;;;;;16.57;9.80;;;;;;;;;;749188;186;919885;-62
2023/05/22 02:39:28;;;;;;;12.67;9.90;;;;;;;;;;755574;185;918699;-61
2023/05/22 02:41:54;;;;;;;12.63;10.13;;;;;;;;;;745915;185;919171;-60
2023/05/22 02:44:20;;;;;;;13.70;9.73;;;;;;;;;;745808;185;920878;-60
2023/05/22 02:46:46;;;;;;;17.05;9.13;;;;;;;;;;751708;185;920106;-61
2023/05/22 02:49:12;;;;;;;12.47;8.63;;;;;;;;;;751631;185;919830;-60
2023/05/22 02:51:38;;;;;;;18.93;10.07;;;;;;;;;;742047;185;919725;-60
2023/05/22 02:54:04;;;;;;;13.07;9.10;;;;;;;;;;746400;185;915808;-61
2023/05/22 02:56:29;;;;;;;17.20;10.27;;;;;;;;;;755521;185;811985;-61
2023/05/22 02:58:56;;;;;;;14.87;8.95;;;;;;;;;;747745;185;913017;-62
2023/05/22 03:01:22;;;;;;;13.70;9.80;;;;;;;;;;747878;184;913696;-61
2023/05/22 03:03:48;;;;;;;12.00;9.30;;;;;;;;;;755906;184;811168;-62
2023/05/22 03:06:13;;;;;;;12.80;9.30;;;;;;;;;;747295;185;919667;-61
2023/05/22 03:08:42;;;;;;;14.30;10.20;;;;;;;;;;748868;186;918141;-62
2023/05/22 03:11:05;;;;;;;12.57;10.50;;;;;;;;;;750524;186;819400;-61
2023/05/22 03:13:31;;;;;;;15.53;10.67;;;;;;;;;;747007;185;918386;-62
2023/05/22 03:15:58;;;;;;;16.90;10.10;;;;;;;;;;749496;186;918553;-62
2023/05/22 03:18:23;;;;;;;15.77;10.63;;;;;;;;;;749577;186;893641;-62
2023/05/22 03:20:48;;;;;;;16.07;11.87;;;;;;;;;;749917;184;921664;-62
2023/05/22 03:23:14;;;;;;;19.77;12.73;;;;;;;;;;748928;185;919302;-61
2023/05/22 03:25:40;;;;;;;15.27;11.23;;;;;;;;;;746014;185;919789;-62
2023/05/22 03:28:06;;;;;;;15.37;10.73;;;;;;;;;;751180;186;927146;-61
2023/05/22 03:30:32;;;;;;;17.70;12.60;;;;;;;;;;746648;186;916860;-63
2023/05/22 03:32:58;;;;;;;20.70;12.32;;;;;;;;;;751635;185;858438;-62
2023/05/22 03:35:24;;;;;;;14.20;11.30;;;;;;;;;;750842;186;918471;-61
2023/05/22 03:37:49;;;;;;;16.83;12.90;;;;;;;;;;755054;186;626255;-62
2023/05/22 03:40:15;;;;;;;17.60;11.33;;;;;;;;;;747578;186;637401;-62
2023/05/22 03:42:41;;;;;;;13.73;11.03;;;;;;;;;;752773;185;631262;-62
2023/05/22 03:45:07;;;;;;;16.13;12.57;;;;;;;;;;749934;187;628068;-61
2023/05/22 03:47:33;;;;;;;18.00;10.90;;;;;;;;;;756533;185;709267;-62
2023/05/22 03:49:59;;;;;;;12.97;9.87;;;;;;;;;;750042;185;818865;-62
2023/05/22 03:52:25;;;;;;;16.00;10.17;;;;;;;;;;755928;185;817476;-62
2023/05/22 03:54:52;;;;;;;18.40;11.70;;;;;;;;;;748146;185;917247;-61
2023/05/22 03:57:18;;;;;;;11.97;10.70;;;;;;;;;;747835;185;1020668;-62
2023/05/22 03:59:42;;;;;;;15.20;10.87;;;;;;;;;;757354;185;919255;-63
2023/05/22 04:02:11;;;;;;;14.93;10.73;;;;;;;;;;748061;185;917776;-60
2023/05/22 04:04:37;;;;;;;15.53;11.60;;;;;;;;;;750580;185;919318;-62
2023/05/22 04:07:01;;;;;;;13.30;10.52;;;;;;;;;;751065;185;920700;-61
2023/05/22 04:09:27;;;;;;;12.33;9.87;;;;;;;;;;754697;185;818987;-61
2023/05/22 04:11:52;;;;;;;18.60;11.20;;;;;;;;;;749880;185;872738;-61
2023/05/22 04:14:18;;;;;;;15.03;10.73;;;;;;;;;;750089;185;920120;-62
2023/05/22 04:16:44;;;;;;;18.67;10.60;;;;;;;;;;755525;185;917047;-61
2023/05/22 04:19:11;;;;;;;16.97;11.30;;;;;;;;;;746940;185;919332;-62
2023/05/22 04:21:37;;;;;;;16.63;9.50;;;;;;;;;;749938;185;822873;-62
2023/05/22 04:24:05;;;;;;;14.80;9.87;;;;;;;;;;749669;186;714713;-61
2023/05/22 04:26:30;;;;;;;13.47;9.70;;;;;;;;;;745585;186;917691;-61
2023/05/22 04:28:54;;;;;;;13.17;9.80;;;;;;;;;;750773;186;911665;-61
2023/05/22 04:31:21;;;;;;;16.27;9.53;;;;;;;;;;748972;186;918961;-62
2023/05/22 04:33:47;;;;;;;14.77;10.10;;;;;;;;;;749155;186;817078;-61
2023/05/22 04:36:12;;;;;;;12.17;9.20;;;;;;;;;;748190;185;919044;-61
2023/05/22 04:38:37;;;;;;;12.27;9.17;;;;;;;;;;749100;186;816365;-61
2023/05/22 04:41:03;;;;;;;8.90;6.73;;;;;;;;;;755291;186;916687;-61
2023/05/22 04:43:31;;;;;;;9.87;6.70;;;;;;;;;;752112;185;921753;-61
2023/05/22 04:45:55;;;;;;;9.20;7.60;;;;;;;;;;745532;186;922583;-62
2023/05/22 04:48:21;;;;;;;10.17;7.80;;;;;;;;;;753141;186;919068;-62
2023/05/22 04:50:47;;;;;;;15.27;8.00;;;;;;;;;;748814;185;918994;-62
2023/05/22 04:53:13;;;;;;;11.00;8.73;;;;;;;;;;754667;185;815977;-61
2023/05/22 04:55:38;;;;;;;10.33;7.80;;;;;;;;;;755735;185;936667;-61
2023/05/22 04:58:05;;;;;;;9.40;8.00;;;;;;;;;;749048;185;823139;-61
2023/05/22 05:00:30;;;;;;;13.57;7.97;;;;;;;;;;750812;185;912464;-63
2023/05/22 05:02:56;;;;;;;10.40;8.20;;;;;;;;;;747681;185;910627;-61
2023/05/22 05:05:22;;;;;;;10.20;8.30;;;;;;;;;;762779;180;820541;-62
2023/05/22 05:07:48;;;;;;;14.40;7.87;;;;;;;;;;745608;185;920048;-62
2023/05/22 05:10:13;;;;;;;10.17;7.57;;;;;;;;;;747552;185;953481;-62
2023/05/22 05:12:39;;;;;;;13.60;7.87;;;;;;;;;;757274;185;821771;-63
2023/05/22 05:15:06;;;;;;;13.17;7.37;;;;;;;;;;752617;185;917149;-62
2023/05/22 05:17:32;;;;;;;11.13;7.80;;;;;;;;;;746610;186;925439;-62
2023/05/22 05:19:58;;;;;;;9.13;7.03;;;;;;;;;;749965;185;820983;-61
2023/05/22 05:22:24;;;;;;;9.53;6.50;;;;;;;;;;749360;185;915150;-61
2023/05/22 05:24:49;;;;;;;8.00;5.93;;;;;;;;;;750573;186;915676;-61
2023/05/22 05:27:15;;;;;;;9.67;6.30;;;;;;;;;;748782;184;920382;-61
2023/05/22 05:29:41;;;;;;;9.10;6.27;;;;;;;;;;746865;185;917398;-63
2023/05/22 05:32:07;;;;;;;9.50;7.20;;;;;;;;;;744041;184;919451;-61
2023/05/22 05:34:33;;;;;;;8.30;6.83;;;;;;;;;;750759;186;920349;-61
2023/05/22 05:36:59;;;;;;;8.40;6.07;;;;;;;;;;749148;186;919836;-62
2023/05/22 05:39:24;;;;;;;7.50;5.50;;;;;;;;;;747079;186;915117;-61
2023/05/22 05:41:50;;;;;;;9.50;6.10;;;;;;;;;;746531;186;919543;-63
2023/05/22 05:44:16;;;;;;;9.13;6.33;;;;;;;;;;749501;186;899397;-62
2023/05/22 05:46:42;;;;;;;12.50;6.70;;;;;;;;;;743612;186;923213;-63
2023/05/22 05:49:08;;;;;;;9.50;5.57;;;;;;;;;;744283;185;919048;-63
2023/05/22 05:51:35;;;;;;;10.87;6.80;;;;;;;;;;750561;186;912637;-62
2023/05/22 05:54:00;;;;;;;17.33;7.00;;;;;;;;;;744352;185;918724;-61
2023/05/22 05:56:26;;;;;;;10.98;6.10;;;;;;;;;;745572;186;926461;-61
2023/05/22 05:58:52;;;;;;;6.07;5.13;;;;;;;;;;750256;185;918573;-61
2023/05/22 06:01:18;;;;;;;8.10;5.97;;;;;;;;;;742438;186;912920;-61
2023/05/22 06:03:44;;;;;;;6.93;5.53;;;;;;;;;;746895;186;922033;-61
2023/05/22 06:06:10;;;;;;;9.83;6.27;;;;;;;;;;745163;186;921215;-61
2023/05/22 06:08:35;;;;;;;9.35;6.50;;;;;;;;;;754600;185;918149;-62
2023/05/22 06:11:02;;;;;;;12.00;6.80;;;;;;;;;;749999;185;921655;-63
2023/05/22 06:13:27;;;;;;;9.07;6.13;;;;;;;;;;750575;185;919295;-61
2023/05/22 06:15:53;;;;;;;12.07;6.10;;;;;;;;;;750031;184;859632;-62
2023/05/22 06:18:19;;;;;;;8.77;5.80;;;;;;;;;;751325;184;919648;-61
2023/05/22 06:20:44;;;;;;;9.27;6.30;;;;;;;;;;747710;185;918903;-61
2023/05/22 06:23:11;;;;;;;10.23;6.23;;;;;;;;;;752206;186;919651;-62
2023/05/22 06:25:38;;;;;;;12.90;6.03;;;;;;;;;;754264;184;916276;-62
2023/05/22 06:28:03;;;;;;;12.20;6.20;;;;;;;;;;747325;185;919278;-61
2023/05/22 06:30:28;;;;;;;8.50;6.00;;;;;;;;;;747529;184;920227;-63
2023/05/22 06:32:54;;;;;;;7.43;5.73;;;;;;;;;;756089;185;918605;-61
2023/05/22 06:35:20;;;;;;;7.53;6.30;;;;;;;;;;747488;185;918021;-63
2023/05/22 06:37:46;;;;;;;10.13;6.60;;;;;;;;;;743472;185;981664;-62
2023/05/22 06:40:12;;;;;;;10.70;6.50;;;;;;;;;;756815;184;914685;-61
2023/05/22 06:42:38;;;;;;;8.17;5.87;;;;;;;;;;745741;186;821967;-61
2023/05/22 06:45:04;;;;;;;9.50;6.00;;;;;;;;;;747457;186;919563;-62
2023/05/22 06:47:30;;;;;;;9.03;6.97;;;;;;;;;;755277;185;909954;-62
2023/05/22 06:49:56;;;;;;;7.80;5.77;;;;;;;;;;746752;185;918556;-63
2023/05/22 06:52:22;;;;;;;8.63;6.80;;;;;;;;;;749220;185;921167;-63
2023/05/22 06:54:48;;;;;;;13.13;8.10;;;;;;;;;;750018;186;818970;-61
2023/05/22 06:57:13;;;;;;;8.80;6.67;;;;;;;;;;754747;185;919234;-61
2023/05/22 06:59:39;;;;;;;10.63;6.10;;;;;;;;;;751092;185;816304;-59
2023/05/22 07:02:05;;;;;;;15.35;7.10;;;;;;;;;;753851;186;711724;-59
2023/05/22 07:04:31;;;;;;;10.77;7.70;;;;;;;;;;753448;186;884902;-62
2023/05/22 07:06:57;;;;;;;10.80;6.90;;;;;;;;;;748311;185;918730;-59
2023/05/22 07:09:23;;;;;;;8.97;6.50;;;;;;;;;;746204;185;919592;-59
2023/05/22 07:11:49;;;;;;;9.93;6.30;;;;;;;;;;748238;186;913901;-59
2023/05/22 07:14:15;;;;;;;9.27;7.03;;;;;;;;;;746013;186;914590;-62
2023/05/22 07:16:40;;;;;;;9.10;7.23;;;;;;;;;;745323;186;937774;-59
2023/05/22 07:19:07;;;;;;;10.73;6.50;;;;;;;;;;748729;185;908137;-60
2023/05/22 07:21:34;;;;;;;8.10;6.23;;;;;;;;;;746408;185;910799;-62
2023/05/22 07:23:58;;;;;;;10.97;6.47;;;;;;;;;;747603;185;919534;-62
2023/05/22 07:26:25;;;;;;;7.80;5.37;;;;;;;;;;745348;185;907628;-62
2023/05/22 07:28:50;;;;;;;17.33;5.43;;;;;;;;;;751931;185;921292;-62
2023/05/22 07:31:16;;;;;;;8.87;6.50;;;;;;;;;;748339;185;917738;-63
2023/05/22 07:33:41;;;;;;;11.60;7.57;;;;;;;;;;746885;185;938938;-60
2023/05/22 07:36:07;;;;;;;15.23;8.10;;;;;;;;;;752996;185;920101;-63
2023/05/22 07:38:33;;;;;;;13.70;5.83;;;;;;;;;;747471;184;916170;-62
2023/05/22 07:40:59;;;;;;;10.20;6.03;;;;;;;;;;747548;185;919442;-62
2023/05/22 07:43:25;;;;;;;9.23;5.30;;;;;;;;;;751142;185;919248;-60
2023/05/22 07:45:52;;;;;;;7.97;5.33;;;;;;;;;;747305;185;938640;-63
2023/05/22 07:48:17;;;;;;;9.47;4.73;;;;;;;;;;744652;185;919037;-62
2023/05/22 07:50:44;;;;;;;13.10;5.30;;;;;;;;;;746251;185;922329;-60
2023/05/22 07:53:08;;;;;;;8.70;5.60;;;;;;;;;;752159;185;818780;-62
2023/05/22 07:55:34;;;;;;;7.13;4.67;;;;;;;;;;746281;186;916914;-64
2023/05/22 07:58:02;;;;;;;10.33;5.23;;;;;;;;;;743133;185;917807;-63
2023/05/22 08:00:26;;;;;;;8.50;5.77;;;;;;;;;;751465;186;921753;-60
2023/05/22 08:02:52;;;;;;;9.77;5.30;;;;;;;;;;744411;184;816541;-60
2023/05/22 08:05:17;;;;;;;9.10;5.37;;;;;;;;;;745613;186;818763;-60
2023/05/22 08:07:43;;;;;;;9.67;6.37;;;;;;;;;;748201;186;918977;-64
2023/05/22 08:10:12;;;;;;;5.70;4.87;;;;;;;;;;749808;184;889730;-65
2023/05/22 08:12:38;;;;;;;8.13;4.93;;;;;;;;;;745160;185;919281;-61
2023/05/22 08:15:04;;;;;;;10.73;5.80;;;;;;;;;;741318;186;919683;-65
2023/05/22 08:17:30;;;;;;;14.50;6.27;;;;;;;;;;759090;185;832294;-61
2023/05/22 08:19:56;;;;;;;9.90;4.93;;;;;;;;;;746834;186;816375;-66
2023/05/22 08:22:21;;;;;;;6.70;5.40;;;;;;;;;;745645;186;919224;-61
2023/05/22 08:24:47;;;;;;;16.10;5.77;;;;;;;;;;754136;186;917640;-61
2023/05/22 08:27:13;;;;;;;7.73;4.63;;;;;;;;;;745907;186;817604;-61
2023/05/22 08:29:39;;;;;;;9.90;5.50;;;;;;;;;;747487;185;819789;-61
2023/05/22 08:32:05;;;;;;;8.03;5.60;;;;;;;;;;753710;185;818893;-65
2023/05/22 08:34:31;;;;;;;6.70;4.90;;;;;;;;;;747033;185;817638;-64
2023/05/22 08:36:57;;;;;;;7.83;5.33;;;;;;;;;;751915;185;924426;-66
2023/05/22 08:39:23;;;;;;;9.30;6.60;;;;;;;;;;743297;185;915211;-65
2023/05/22 08:41:48;;;;;;;13.53;6.20;;;;;;;;;;753053;181;914579;-61
2023/05/22 08:44:15;;;;;;;10.20;6.40;;;;;;;;;;747665;185;913349;-65
2023/05/22 08:46:42;;;;;;;8.20;5.20;;;;;;;;;;743858;185;921660;-65
2023/05/22 08:49:07;;;;;;;7.97;5.67;;;;;;;;;;748748;185;912289;-62
2023/05/22 08:51:33;;;;;;;11.83;5.20;;;;;;;;;;750894;185;900059;-66
2023/05/22 08:53:58;;;;;;;7.70;5.20;;;;;;;;;;746696;186;918507;-62
2023/05/22 08:56:25;;;;;;;11.80;5.40;;;;;;;;;;748582;184;918332;-67
2023/05/22 08:58:50;;;;;;;10.70;6.00;;;;;;;;;;744842;186;922402;-62
2023/05/22 09:01:16;;;;;;;8.40;5.73;;;;;;;;;;744760;185;1022284;-67
2023/05/22 09:03:42;;;;;;;8.40;5.30;;;;;;;;;;744898;185;919334;-61
2023/05/22 09:06:09;;;;;;;10.33;5.80;;;;;;;;;;750710;186;893141;-62
2023/05/22 09:08:34;;;;;;;13.47;6.80;;;;;;;;;;747864;185;920632;-62
2023/05/22 09:10:59;;;;;;;12.60;6.80;;;;;;;;;;745328;186;920587;-65
2023/05/22 09:13:26;;;;;;;10.57;6.53;;;;;;;;;;753639;186;919071;-66
2023/05/22 09:15:51;;;;;;;8.57;5.93;;;;;;;;;;754364;184;817957;-66
2023/05/22 09:18:17;;;;;;;11.97;7.47;;;;;;;;;;749228;186;881094;-66
2023/05/22 09:20:43;;;;;;;10.07;6.77;;;;;;;;;;748151;186;917839;-62
2023/05/22 09:23:10;;;;;;;9.00;5.50;;;;;;;;;;749799;186;919559;-62
2023/05/22 09:25:35;;;;;;;12.20;7.40;;;;;;;;;;748983;186;919298;-63
2023/05/22 09:28:01;;;;;;;10.47;7.03;;;;;;;;;;749199;186;918626;-67
2023/05/22 09:30:27;;;;;;;8.50;6.00;;;;;;;;;;745400;186;919314;-66
2023/05/22 09:32:53;;;;;;;7.73;6.03;;;;;;;;;;742898;186;922424;-63
2023/05/22 09:35:19;;;;;;;10.03;6.87;;;;;;;;;;746785;186;930467;-62
2023/05/22 09:37:45;;;;;;;11.43;5.87;;;;;;;;;;754022;186;710924;-62
2023/05/22 09:40:12;;;;;;;9.57;6.30;;;;;;;;;;749588;186;919494;-68
2023/05/22 09:42:36;;;;;;;13.03;7.20;;;;;;;;;;749857;185;824174;-66
2023/05/22 09:45:03;;;;;;;11.15;6.62;;;;;;;;;;753275;185;931880;-62
2023/05/22 09:47:29;;;;;;;5.43;4.30;;;;;;;;;;747653;185;922275;-62
2023/05/22 09:49:55;;;;;;;11.70;5.15;;;;;;;;;;748765;185;912076;-64
2023/05/22 09:52:21;;;;;;;11.10;5.37;;;;;;;;;;753428;185;921114;-62
2023/05/22 09:54:47;;;;;;;10.43;6.20;;;;;;;;;;745818;185;860358;-62
2023/05/22 09:57:13;;;;;;;8.60;5.43;;;;;;;;;;746188;185;923782;-67
2023/05/22 09:59:39;;;;;;;9.07;6.00;;;;;;;;;;745330;186;1126331;-67
2023/05/22 10:02:04;;;;;;;16.83;6.60;;;;;;;;;;749165;185;919698;-67
2023/05/22 10:04:30;;;;;;;11.40;6.27;;;;;;;;;;744154;186;918812;-62
2023/05/22 10:06:56;;;;;;;7.10;5.67;;;;;;;;;;750214;185;918901;-66
2023/05/22 10:09:22;;;;;;;6.33;5.17;;;;;;;;;;751484;186;924490;-67
2023/05/22 10:11:48;;;;;;;8.93;5.07;;;;;;;;;;748190;185;919022;-63
2023/05/22 10:14:14;;;;;;;11.23;5.30;;;;;;;;;;747522;185;928176;-63
2023/05/22 10:16:40;;;;;;;11.90;6.20;;;;;;;;;;750255;186;921223;-67
2023/05/22 10:19:05;;;;;;;7.97;5.57;;;;;;;;;;745358;186;817749;-63
2023/05/22 10:21:31;;;;;;;8.30;6.17;;;;;;;;;;747291;186;814537;-66
2023/05/22 10:23:57;;;;;;;9.33;5.97;;;;;;;;;;753184;186;917318;-63
2023/05/22 10:26:23;;;;;;;11.40;6.00;;;;;;;;;;745829;185;918298;-63
2023/05/22 10:28:50;;;;;;;6.60;5.40;;;;;;;;;;746223;185;940670;-62
2023/05/22 10:31:17;;;;;;;11.70;5.20;;;;;;;;;;746738;184;919062;-63
2023/05/22 10:33:44;;;;;;;7.03;4.83;;;;;;;;;;753948;185;918894;-67
2023/05/22 10:36:10;;;;;;;11.20;6.17;;;;;;;;;;738326;186;920906;-66
2023/05/22 10:38:42;;;;;;;7.43;5.80;;;;;;;;;;741934;187;918729;-68
2023/05/22 10:41:07;;;;;;;9.73;5.60;;;;;;;;;;746472;186;919666;-66
2023/05/22 10:43:33;;;;;;;9.70;6.40;;;;;;;;;;741734;186;1020120;-64
2023/05/22 10:46:00;;;;;;;9.23;4.83;;;;;;;;;;750567;185;816334;-63
2023/05/22 10:48:26;;;;;;;6.60;5.03;;;;;;;;;;745476;186;918495;-64
2023/05/22 10:50:52;;;;;;;9.97;5.63;;;;;;;;;;755172;186;851033;-63
2023/05/22 10:53:20;;;;;;;8.73;5.57;;;;;;;;;;746245;184;904065;-63
2023/05/22 10:55:48;;;;;;;8.20;5.10;;;;;;;;;;753571;184;920474;-63
2023/05/22 10:58:13;;;;;;;7.17;5.03;;;;;;;;;;752896;185;918216;-67
2023/05/22 11:00:39;;;;;;;7.13;4.57;;;;;;;;;;747287;184;919411;-66
2023/05/22 11:03:05;;;;;;;6.80;4.60;;;;;;;;;;750022;185;920082;-68
2023/05/22 11:05:33;;;;;;;10.77;4.93;;;;;;;;;;749063;185;799061;-67
2023/05/22 11:08:05;;;;;;;9.67;4.23;;;;;;;;;;756384;184;818807;-63
2023/05/22 11:10:36;;;;;;;6.40;5.20;;;;;;;;;;744548;186;918919;-62
2023/05/22 11:13:02;;;;;;;7.40;4.50;;;;;;;;;;747662;184;919261;-63
2023/05/22 11:15:29;;;;;;;6.43;4.53;;;;;;;;;;743742;185;916968;-64
2023/05/22 11:17:55;;;;;;;7.87;4.53;;;;;;;;;;747130;186;1022235;-63
2023/05/22 11:20:21;;;;;;;8.70;4.80;;;;;;;;;;745490;185;919715;-63
2023/05/22 11:22:49;;;;;;;8.77;5.37;;;;;;;;;;749659;185;922602;-67
2023/05/22 11:25:15;;;;;;;12.13;4.60;;;;;;;;;;753210;185;818275;-68
2023/05/22 11:27:41;;;;;;;6.03;4.50;;;;;;;;;;750285;185;816738;-63
2023/05/22 11:30:07;;;;;;;6.60;4.13;;;;;;;;;;745271;186;1021557;-67
2023/05/22 11:32:34;;;;;;;9.10;4.13;;;;;;;;;;743852;186;1020572;-63
2023/05/22 11:35:00;;;;;;;7.00;4.60;;;;;;;;;;751164;186;909217;-67
2023/05/22 11:37:25;;;;;;;6.50;4.20;;;;;;;;;;744523;186;919830;-65
2023/05/22 11:39:55;;;;;;;5.90;3.60;;;;;;;;;;751000;185;920104;-63
2023/05/22 11:42:21;;;;;;;6.20;3.30;;;;;;;;;;756452;186;901051;-61
2023/05/22 11:44:47;;;;;;;8.43;4.40;;;;;;;;;;742782;186;923446;-67
2023/05/22 11:47:13;;;;;;;11.23;4.87;;;;;;;;;;751788;186;918617;-62
2023/05/22 11:49:40;;;;;;;7.43;4.90;;;;;;;;;;748027;186;920051;-65
2023/05/22 11:52:05;;;;;;;6.57;3.70;;;;;;;;;;756996;184;926772;-67
2023/05/22 11:54:31;;;;;;;6.60;4.00;;;;;;;;;;750670;185;920411;-61
2023/05/22 11:56:57;;;;;;;5.90;3.90;;;;;;;;;;747488;184;920515;-66
2023/05/22 11:59:23;;;;;;;7.20;4.60;;;;;;;;;;753261;184;920013;-66
2023/05/22 12:01:49;;;;;;;7.90;3.60;;;;;;;;;;750566;185;793113;-62
2023/05/22 12:04:15;;;;;;;6.53;4.10;;;;;;;;;;749664;184;920521;-63
2023/05/22 12:06:40;;;;;;;7.93;3.57;;;;;;;;;;753479;185;916490;-62
2023/05/22 12:09:07;;;;;;;9.30;4.20;;;;;;;;;;751374;184;943215;-67
2023/05/22 12:11:35;;;;;;;6.53;4.07;;;;;;;;;;748964;185;920377;-67
2023/05/22 12:14:00;;;;;;;7.30;4.17;;;;;;;;;;748150;185;918768;-62
2023/05/22 12:16:26;;;;;;;6.60;4.80;;;;;;;;;;751560;181;920698;-67
2023/05/22 12:18:52;;;;;;;6.70;4.00;;;;;;;;;;742248;185;921647;-62
2023/05/22 12:21:17;;;;;;;4.63;3.10;;;;;;;;;;747468;185;940590;-67
2023/05/22 12:23:48;;;;;;;5.87;3.40;;;;;;;;;;748489;185;921603;-68
2023/05/22 12:26:13;;;;;;;4.67;3.20;;;;;;;;;;751249;185;676848;-62
2023/05/22 12:28:39;;;;;;;4.70;3.70;;;;;;;;;;745286;185;928887;-67
2023/05/22 12:31:04;;;;;;;6.20;3.80;;;;;;;;;;751647;185;916699;-67
2023/05/22 12:33:30;;;;;;;5.00;3.80;;;;;;;;;;746698;185;916008;-62
2023/05/22 12:35:57;;;;;;;5.60;3.83;;;;;;;;;;747603;186;902184;-67
2023/05/22 12:38:24;;;;;;;6.17;4.20;;;;;;;;;;747663;184;919584;-63
2023/05/22 12:40:50;;;;;;;7.90;3.60;;;;;;;;;;756679;182;946880;-66
2023/05/22 12:43:15;;;;;;;6.60;4.13;;;;;;;;;;743059;185;922150;-62
2023/05/22 12:45:41;;;;;;;7.07;3.53;;;;;;;;;;748737;185;918992;-67
2023/05/22 12:48:07;;;;;;;6.07;3.77;;;;;;;;;;751194;186;917201;-67
2023/05/22 12:50:33;;;;;;;8.90;3.90;;;;;;;;;;745923;186;942556;-67
2023/05/22 12:52:59;;;;;;;7.07;4.30;;;;;;;;;;745670;186;919727;-63
2023/05/22 12:55:24;;;;;;;6.20;3.77;;;;;;;;;;750670;186;921317;-68
2023/05/22 12:57:50;;;;;;;7.80;4.10;;;;;;;;;;745500;186;927273;-69
2023/05/22 13:00:16;;;;;;;5.63;3.97;;;;;;;;;;750459;186;921638;-62
2023/05/22 13:02:42;;;;;;;5.80;4.00;;;;;;;;;;750095;185;918191;-63
2023/05/22 13:05:08;;;;;;;8.88;3.67;;;;;;;;;;746844;185;918975;-63
2023/05/22 13:07:34;;;;;;;4.10;3.40;;;;;;;;;;747009;186;919353;-68
2023/05/22 13:10:00;;;;;;;5.72;3.62;;;;;;;;;;746914;186;933924;-68
2023/05/22 13:12:26;;;;;;;5.30;3.70;;;;;;;;;;749602;186;920886;-68
2023/05/22 13:14:51;;;;;;;5.73;3.33;;;;;;;;;;748033;185;923001;-62
2023/05/22 13:17:17;;;;;;;8.83;3.93;;;;;;;;;;751123;185;929726;-63
2023/05/22 13:19:43;;;;;;;5.00;2.90;;;;;;;;;;755809;184;816784;-69
2023/05/22 13:22:09;;;;;;;5.83;3.03;;;;;;;;;;752757;185;834891;-68
2023/05/22 13:24:35;;;;;;;7.20;3.53;;;;;;;;;;749477;185;917900;-62
2023/05/22 13:27:01;;;;;;;5.97;4.10;;;;;;;;;;752700;185;920107;-68
2023/05/22 13:29:27;;;;;;;7.40;3.57;;;;;;;;;;748605;185;918131;-64
2023/05/22 13:31:52;;;;;;;6.23;3.60;;;;;;;;;;745265;185;816860;-63
2023/05/22 13:34:18;;;;;;;12.50;2.97;;;;;;;;;;742606;186;918545;-67
2023/05/22 13:36:44;;;;;;;5.10;3.03;;;;;;;;;;753480;185;912634;-63
2023/05/22 13:39:10;;;;;;;4.90;3.10;;;;;;;;;;747755;184;905867;-62
2023/05/22 13:41:36;;;;;;;5.13;3.63;;;;;;;;;;746884;185;918414;-67
2023/05/22 13:44:02;;;;;;;6.67;3.37;;;;;;;;;;750079;185;816559;-68
2023/05/22 13:46:27;;;;;;;8.13;4.00;;;;;;;;;;746650;185;919412;-67
2023/05/22 13:48:54;;;;;;;4.87;3.23;;;;;;;;;;750433;185;920059;-68
2023/05/22 13:51:19;;;;;;;7.33;3.30;;;;;;;;;;749699;186;909764;-62
2023/05/22 13:53:45;;;;;;;8.40;3.37;;;;;;;;;;748193;185;920146;-69
2023/05/22 13:56:11;;;;;;;4.90;3.30;;;;;;;;;;748673;186;914562;-62
2023/05/22 13:58:37;;;;;;;5.55;4.10;;;;;;;;;;749649;185;819484;-63
2023/05/22 14:01:03;;;;;;;13.30;3.90;;;;;;;;;;746593;185;900980;-67
2023/05/22 14:03:29;;;;;;;7.47;3.63;;;;;;;;;;749046;185;921020;-68
2023/05/22 14:05:55;;;;;;;6.60;3.80;;;;;;;;;;747687;185;920755;-68
2023/05/22 14:08:21;;;;;;;5.70;3.93;;;;;;;;;;755284;185;855277;-68
2023/05/22 14:10:46;;;;;;;4.93;3.33;;;;;;;;;;749100;186;918667;-62
2023/05/22 14:13:14;;;;;;;6.93;3.93;;;;;;;;;;750290;186;833614;-62